Time;durP1;ratioP1;P1;durP2;ratioP2;P2;SDS_P1;SDS_P2;PMS_P1;PMS_P2;Temp;Humidity;BMP_temperature;BMP_pressure;BME280_temperature;BME280_humidity;BME280_pressure;Samples;Min_cycle;Max_cycle;Signal;HPM_P1;HPM_P2
2022/03/27 00:00:56;;;;;;;25.98;2.13;;;35.40;15.50;;;;;;4940862;28;20074;-74
2022/03/27 00:03:23;;;;;;;19.83;2.10;;;35.30;15.40;;;;;;4945082;28;20067;-72
2022/03/27 00:05:49;;;;;;;7.68;1.60;;;35.10;15.10;;;;;;4955431;28;20076;-74
2022/03/27 00:08:15;;;;;;;17.73;1.67;;;35.00;15.00;;;;;;4948758;28;20058;-73
2022/03/27 00:13:26;;;;;;;17.20;1.77;;;34.70;15.00;;;;;;4947375;28;21019;-77
2022/03/27 00:15:53;;;;;;;11.68;1.77;;;34.60;15.50;;;;;;4948533;28;20400;-75
2022/03/27 00:18:19;;;;;;;18.73;2.05;;;34.50;15.50;;;;;;4950203;28;20441;-76
2022/03/27 00:20:45;;;;;;;12.77;1.60;;;34.50;16.20;;;;;;4957130;28;20377;-76
2022/03/27 00:23:12;;;;;;;24.15;2.80;;;34.50;15.30;;;;;;4937676;28;20070;-74
2022/03/27 00:25:39;;;;;;;25.40;1.77;;;34.40;15.20;;;;;;4942965;28;20067;-73
2022/03/27 00:28:05;;;;;;;11.43;2.10;;;34.20;15.40;;;;;;4939291;29;20087;-74
2022/03/27 00:30:32;;;;;;;13.07;1.80;;;34.10;15.70;;;;;;4944596;28;20069;-76
2022/03/27 00:32:58;;;;;;;12.15;2.33;;;34.10;15.60;;;;;;4944303;28;20087;-73
2022/03/27 00:35:25;;;;;;;22.27;2.22;;;34.00;15.90;;;;;;4947633;28;20083;-73
2022/03/27 00:37:52;;;;;;;22.52;2.00;;;33.90;15.50;;;;;;4948492;28;20396;-73
2022/03/27 00:40:19;;;;;;;24.17;2.10;;;33.70;15.70;;;;;;4951547;28;20066;-73
2022/03/27 00:42:46;;;;;;;16.13;1.95;;;33.60;15.80;;;;;;4921086;29;20581;-72
2022/03/27 00:45:15;;;;;;;12.80;1.77;;;33.60;16.00;;;;;;4948102;29;20160;-71
2022/03/27 00:47:43;;;;;;;29.40;2.03;;;33.40;16.70;;;;;;4956176;28;20074;-73
2022/03/27 00:50:10;;;;;;;22.05;2.20;;;33.40;16.30;;;;;;4947341;28;20084;-73
2022/03/27 00:52:37;;;;;;;47.08;2.60;;;33.20;16.70;;;;;;4950104;28;20071;-73
2022/03/27 00:55:04;;;;;;;9.35;1.80;;;33.10;16.70;;;;;;4940093;28;20083;-73
2022/03/27 00:57:30;;;;;;;12.55;1.70;;;33.00;16.90;;;;;;4947145;28;20138;-71
2022/03/27 00:59:57;;;;;;;26.70;1.90;;;33.00;17.00;;;;;;4946999;29;20146;-72
2022/03/27 01:02:25;;;;;;;18.00;1.83;;;33.20;16.60;;;;;;4936008;28;20091;-72
2022/03/27 01:04:55;;;;;;;18.88;1.75;;;33.20;16.30;;;;;;4942579;28;20078;-72
2022/03/27 01:07:22;;;;;;;10.13;1.38;;;32.90;15.70;;;;;;4942234;28;20535;-72
2022/03/27 01:09:49;;;;;;;25.05;2.25;;;32.70;15.30;;;;;;4938357;28;20126;-74
2022/03/27 01:12:23;;;;;;;12.07;2.13;;;32.40;15.50;;;;;;4938463;28;20072;-72
2022/03/27 01:14:51;;;;;;;32.00;2.30;;;32.30;15.60;;;;;;4937796;28;20088;-73
2022/03/27 01:17:20;;;;;;;13.00;1.95;;;32.20;15.70;;;;;;4943808;28;20109;-74
2022/03/27 01:19:52;;;;;;;12.27;1.52;;;32.00;15.70;;;;;;4946196;29;20081;-75
2022/03/27 01:22:20;;;;;;;11.85;1.83;;;31.90;16.00;;;;;;4942035;28;20197;-74
2022/03/27 01:24:48;;;;;;;19.35;2.13;;;31.80;16.00;;;;;;4944632;28;20115;-73
2022/03/27 01:27:15;;;;;;;14.35;2.08;;;31.70;16.70;;;;;;4935871;29;20158;-73
2022/03/27 01:29:42;;;;;;;17.70;2.40;;;31.70;16.40;;;;;;4937226;28;20074;-73
2022/03/27 01:32:14;;;;;;;13.23;1.98;;;31.50;16.60;;;;;;4952425;28;20069;-73
2022/03/27 01:34:44;;;;;;;17.33;2.20;;;31.40;16.90;;;;;;4943483;28;20087;-74
2022/03/27 01:37:12;;;;;;;32.58;2.97;;;31.30;17.30;;;;;;4942902;28;20097;-73
2022/03/27 01:39:39;;;;;;;21.33;2.85;;;31.20;17.70;;;;;;4949645;28;20081;-74
2022/03/27 01:42:06;;;;;;;15.20;2.08;;;31.10;18.00;;;;;;4953660;28;20457;-73
2022/03/27 01:44:33;;;;;;;27.77;2.83;;;31.00;18.10;;;;;;4940426;28;20158;-71
2022/03/27 01:47:01;;;;;;;17.55;2.22;;;30.90;18.30;;;;;;4953718;29;20524;-72
2022/03/27 01:49:27;;;;;;;21.60;2.97;;;30.80;18.30;;;;;;4941227;28;20514;-77
2022/03/27 01:51:54;;;;;;;24.05;2.70;;;30.70;18.60;;;;;;4951638;28;20073;-73
2022/03/27 01:54:22;;;;;;;26.75;3.22;;;30.60;18.70;;;;;;4949383;29;20075;-72
2022/03/27 01:56:49;;;;;;;24.55;2.17;;;30.50;18.70;;;;;;4942175;28;20093;-74
2022/03/27 01:59:16;;;;;;;32.88;3.38;;;30.40;18.90;;;;;;4952530;28;20075;-73
2022/03/27 02:01:43;;;;;;;21.90;2.47;;;30.30;18.80;;;;;;4952387;28;20086;-72
2022/03/27 02:04:09;;;;;;;21.13;3.08;;;30.20;19.00;;;;;;4944678;28;20218;-72
2022/03/27 02:06:39;;;;;;;19.13;2.85;;;30.10;19.20;;;;;;4948178;28;20071;-73
2022/03/27 02:09:06;;;;;;;15.48;2.53;;;30.10;19.50;;;;;;4936999;28;20074;-71
2022/03/27 02:11:33;;;;;;;28.40;3.15;;;30.00;19.50;;;;;;4945933;28;20574;-72
2022/03/27 02:14:00;;;;;;;43.92;4.20;;;29.90;19.60;;;;;;4948118;28;20082;-72
2022/03/27 02:16:26;;;;;;;32.97;4.25;;;29.80;19.70;;;;;;4959794;28;20099;-74
2022/03/27 02:18:52;;;;;;;27.25;3.58;;;29.70;19.90;;;;;;4943408;28;20141;-73
2022/03/27 02:21:19;;;;;;;30.88;4.10;;;29.60;20.20;;;;;;4953334;28;20103;-73
2022/03/27 02:23:46;;;;;;;27.73;3.65;;;29.50;20.40;;;;;;4954161;28;20081;-71
2022/03/27 02:26:12;;;;;;;33.05;4.00;;;29.40;20.30;;;;;;4950294;28;20129;-72
2022/03/27 02:28:40;;;;;;;30.67;4.10;;;29.30;20.30;;;;;;4947694;28;20071;-71
2022/03/27 02:31:07;;;;;;;39.08;4.45;;;29.20;20.50;;;;;;4936233;28;20088;-73
2022/03/27 02:33:35;;;;;;;36.28;4.15;;;29.20;20.50;;;;;;4946493;28;20110;-73
2022/03/27 02:36:05;;;;;;;40.50;5.15;;;29.10;20.40;;;;;;4934591;28;20089;-73
2022/03/27 02:38:35;;;;;;;26.55;4.53;;;28.90;20.40;;;;;;4943136;28;20071;-74
2022/03/27 02:41:03;;;;;;;33.55;4.68;;;28.90;20.30;;;;;;4935728;28;20086;-73
2022/03/27 02:43:31;;;;;;;34.10;4.28;;;28.70;20.20;;;;;;4945596;28;20074;-73
2022/03/27 02:45:57;;;;;;;27.50;4.05;;;28.70;20.10;;;;;;4946141;28;20121;-73
2022/03/27 02:48:23;;;;;;;41.65;5.13;;;28.60;20.00;;;;;;4962580;28;20075;-73
2022/03/27 02:50:50;;;;;;;42.60;5.07;;;28.60;19.90;;;;;;4955034;28;20076;-74
2022/03/27 02:53:16;;;;;;;41.60;5.82;;;28.50;19.90;;;;;;4935955;28;20078;-69
2022/03/27 02:55:43;;;;;;;26.95;5.30;;;28.40;19.80;;;;;;4936052;28;20087;-73
2022/03/27 02:58:09;;;;;;;37.10;5.55;;;28.30;19.80;;;;;;4953192;28;20168;-73
2022/03/27 03:00:36;;;;;;;40.90;7.43;;;28.20;19.70;;;;;;4963073;28;20093;-74
2022/03/27 03:03:03;;;;;;;36.13;6.30;;;28.10;19.70;;;;;;4954282;28;20571;-71
2022/03/27 03:05:29;;;;;;;27.95;6.32;;;28.10;19.60;;;;;;4962375;28;20070;-73
2022/03/27 03:07:57;;;;;;;20.30;5.88;;;28.00;19.40;;;;;;4949449;28;20087;-72
2022/03/27 03:10:23;;;;;;;38.03;5.88;;;27.90;19.30;;;;;;4935479;28;20541;-74
2022/03/27 03:12:49;;;;;;;27.83;6.38;;;27.80;19.10;;;;;;4937293;28;20078;-75
2022/03/27 03:15:16;;;;;;;46.67;6.55;;;27.80;19.10;;;;;;4957571;28;20078;-79
2022/03/27 03:17:42;;;;;;;44.78;6.55;;;27.80;19.20;;;;;;4952133;28;20109;-73
2022/03/27 03:20:09;;;;;;;27.50;5.60;;;27.70;19.00;;;;;;4949188;28;20535;-75
2022/03/27 03:22:37;;;;;;;32.35;7.10;;;27.70;19.10;;;;;;4944461;28;20780;-72
2022/03/27 03:25:05;;;;;;;26.15;6.30;;;27.60;19.10;;;;;;4956414;28;20074;-74
2022/03/27 03:27:31;;;;;;;47.60;6.60;;;27.50;19.20;;;;;;4951480;28;20077;-73
2022/03/27 03:29:57;;;;;;;29.52;6.22;;;27.50;19.20;;;;;;4953526;28;20576;-74
2022/03/27 03:32:24;;;;;;;34.92;5.60;;;27.40;19.30;;;;;;4936971;28;20089;-74
2022/03/27 03:34:51;;;;;;;38.22;5.90;;;27.30;19.30;;;;;;4959955;28;20160;-78
2022/03/27 03:37:17;;;;;;;34.33;5.40;;;27.30;19.50;;;;;;4947507;28;20075;-75
2022/03/27 03:39:45;;;;;;;27.48;5.25;;;27.20;19.40;;;;;;4934910;28;20094;-75
2022/03/27 03:42:11;;;;;;;38.67;6.05;;;27.10;19.50;;;;;;4935566;28;20181;-73
2022/03/27 03:44:38;;;;;;;42.55;5.65;;;27.10;19.70;;;;;;4953787;28;20150;-72
2022/03/27 03:47:05;;;;;;;23.30;4.60;;;27.00;19.80;;;;;;4963177;28;20630;-72
2022/03/27 03:49:31;;;;;;;23.98;4.28;;;27.00;20.00;;;;;;4952185;28;20082;-74
2022/03/27 03:51:57;;;;;;;38.65;4.60;;;26.80;20.30;;;;;;4935537;28;20085;-75
2022/03/27 03:54:24;;;;;;;25.58;3.95;;;26.80;20.40;;;;;;4952091;28;20633;-74
2022/03/27 03:56:51;;;;;;;25.60;3.80;;;26.70;20.50;;;;;;4959614;28;20510;-73
2022/03/27 03:59:18;;;;;;;27.33;4.18;;;26.60;20.60;;;;;;4954569;28;20204;-73
2022/03/27 04:01:45;;;;;;;26.85;3.80;;;26.60;20.60;;;;;;4953272;28;20848;-74
2022/03/27 04:04:11;;;;;;;30.83;3.95;;;26.60;20.50;;;;;;4965144;28;20071;-76
2022/03/27 04:06:38;;;;;;;27.23;4.15;;;26.50;20.40;;;;;;4955858;28;20590;-74
2022/03/27 04:09:04;;;;;;;27.60;4.07;;;26.50;20.40;;;;;;4957088;28;20102;-73
2022/03/27 04:11:30;;;;;;;26.02;3.97;;;26.40;20.40;;;;;;4956355;28;20071;-72
2022/03/27 04:13:57;;;;;;;28.17;4.57;;;26.30;20.60;;;;;;4971009;28;20136;-74
2022/03/27 04:16:23;;;;;;;18.27;4.63;;;26.20;20.70;;;;;;4956315;28;20110;-74
2022/03/27 04:18:50;;;;;;;23.77;4.57;;;26.10;20.80;;;;;;4949260;28;20125;-75
2022/03/27 04:21:16;;;;;;;28.17;4.75;;;26.10;20.90;;;;;;4948372;28;20097;-73
2022/03/27 04:23:43;;;;;;;21.67;3.80;;;26.10;20.90;;;;;;4932846;28;20095;-72
2022/03/27 04:26:09;;;;;;;25.73;4.32;;;26.00;20.60;;;;;;4952265;28;20074;-74
2022/03/27 04:28:36;;;;;;;23.67;4.50;;;26.00;21.00;;;;;;4950222;28;20145;-74
2022/03/27 04:31:02;;;;;;;30.98;5.43;;;25.80;21.00;;;;;;4952839;28;20078;-72
2022/03/27 04:33:29;;;;;;;24.05;5.10;;;25.80;21.50;;;;;;4937092;28;20438;-73
2022/03/27 04:35:55;;;;;;;18.80;4.55;;;25.80;21.60;;;;;;4947103;28;20101;-73
2022/03/27 04:38:21;;;;;;;29.90;6.22;;;25.70;21.80;;;;;;4957211;28;20078;-73
2022/03/27 04:40:50;;;;;;;24.83;6.68;;;25.70;22.30;;;;;;4950378;28;20531;-73
2022/03/27 04:43:16;;;;;;;31.95;6.80;;;25.70;22.60;;;;;;4952246;28;20074;-72
2022/03/27 04:45:43;;;;;;;45.50;8.38;;;25.60;23.10;;;;;;4949791;28;20075;-73
2022/03/27 04:48:09;;;;;;;27.92;7.65;;;25.60;23.30;;;;;;4952156;28;20086;-72
2022/03/27 04:50:35;;;;;;;30.67;8.25;;;25.50;23.50;;;;;;4951758;28;20105;-72
2022/03/27 04:53:02;;;;;;;29.35;8.45;;;25.50;23.80;;;;;;4948328;28;20438;-75
2022/03/27 04:55:28;;;;;;;35.80;9.68;;;25.40;23.90;;;;;;4953187;28;20102;-74
2022/03/27 04:57:55;;;;;;;30.95;9.57;;;25.30;24.10;;;;;;4933128;28;20086;-73
2022/03/27 05:00:21;;;;;;;37.35;9.07;;;25.30;24.00;;;;;;4951098;28;20482;-72
2022/03/27 05:02:48;;;;;;;42.83;8.98;;;25.20;24.10;;;;;;4947475;28;20098;-79
2022/03/27 05:05:15;;;;;;;33.20;9.20;;;25.10;24.50;;;;;;4937528;28;20075;-76
2022/03/27 05:07:43;;;;;;;36.63;9.80;;;25.10;24.70;;;;;;4933396;28;20101;-76
2022/03/27 05:10:13;;;;;;;35.08;8.95;;;25.00;24.80;;;;;;4939116;28;20130;-76
2022/03/27 05:12:40;;;;;;;37.33;9.60;;;25.00;25.20;;;;;;4950739;28;20106;-76
2022/03/27 05:15:09;;;;;;;31.40;8.95;;;25.00;25.30;;;;;;4957021;28;20078;-76
2022/03/27 05:17:46;;;;;;;37.15;9.43;;;25.00;25.70;;;;;;4934690;28;20114;-76
2022/03/27 05:20:13;;;;;;;79.03;9.10;;;24.90;25.80;;;;;;4935181;28;20078;-74
2022/03/27 05:22:45;;;;;;;31.83;7.82;;;24.90;26.00;;;;;;4951670;28;20086;-73
2022/03/27 05:25:12;;;;;;;18.25;6.22;;;24.70;25.90;;;;;;4967650;28;20499;-73
2022/03/27 05:27:47;;;;;;;28.02;7.22;;;24.60;26.00;;;;;;4948219;28;20164;-74
2022/03/27 05:30:17;;;;;;;24.73;6.75;;;24.50;26.40;;;;;;4952197;28;20070;-74
2022/03/27 05:32:44;;;;;;;24.58;5.82;;;24.50;26.90;;;;;;4934523;28;20079;-76
2022/03/27 05:35:11;;;;;;;22.15;5.28;;;24.30;27.60;;;;;;4942060;28;20077;-74
2022/03/27 05:37:41;;;;;;;18.15;4.30;;;24.20;29.20;;;;;;4961919;28;20078;-72
2022/03/27 05:40:10;;;;;;;20.85;4.85;;;24.10;29.70;;;;;;4938334;28;20079;-73
2022/03/27 05:42:37;;;;;;;18.80;4.93;;;24.10;30.50;;;;;;4941813;28;20094;-71
2022/03/27 05:45:08;;;;;;;16.10;5.40;;;23.90;30.80;;;;;;4960826;28;20071;-74
2022/03/27 05:47:37;;;;;;;15.88;5.40;;;23.80;31.20;;;;;;4936839;28;20074;-72
2022/03/27 05:50:04;;;;;;;15.52;5.53;;;23.80;31.30;;;;;;4920976;28;20074;-71
2022/03/27 05:52:31;;;;;;;21.50;5.63;;;23.70;31.40;;;;;;4950136;28;20130;-70
2022/03/27 05:54:58;;;;;;;18.42;5.20;;;23.60;31.30;;;;;;4957844;28;20083;-73
2022/03/27 05:57:24;;;;;;;17.98;4.30;;;23.50;31.40;;;;;;4949124;28;20094;-73
2022/03/27 05:59:51;;;;;;;10.35;3.80;;;23.50;31.50;;;;;;4944516;28;20128;-73
2022/03/27 06:02:17;;;;;;;16.75;3.47;;;23.40;31.60;;;;;;4950138;28;20092;-73
2022/03/27 06:04:44;;;;;;;13.40;3.67;;;23.40;31.60;;;;;;4935745;28;20071;-72
2022/03/27 06:07:11;;;;;;;12.82;3.47;;;23.40;31.90;;;;;;4952900;28;20528;-73
2022/03/27 06:09:37;;;;;;;19.40;5.53;;;23.30;32.00;;;;;;4941786;28;20106;-72
2022/03/27 06:12:05;;;;;;;14.38;4.82;;;23.30;32.10;;;;;;4968590;28;20088;-72
2022/03/27 06:14:32;;;;;;;16.38;3.90;;;23.20;31.90;;;;;;4956143;28;20078;-73
2022/03/27 06:16:59;;;;;;;16.08;3.33;;;23.20;31.80;;;;;;4944236;28;20479;-72
2022/03/27 06:19:26;;;;;;;16.52;3.20;;;23.20;31.80;;;;;;4948748;28;21081;-74
2022/03/27 06:21:53;;;;;;;15.65;3.03;;;23.20;32.10;;;;;;4964050;28;20090;-74
2022/03/27 06:24:19;;;;;;;10.77;3.53;;;23.10;31.80;;;;;;4951082;28;20081;-74
2022/03/27 06:26:45;;;;;;;19.30;4.68;;;23.10;32.40;;;;;;4953198;28;20091;-72
2022/03/27 06:29:14;;;;;;;13.00;4.18;;;23.10;32.80;;;;;;4968329;28;20139;-73
2022/03/27 06:31:40;;;;;;;17.23;3.85;;;23.10;33.10;;;;;;4969069;28;20119;-72
2022/03/27 06:34:07;;;;;;;9.50;3.15;;;22.90;32.70;;;;;;4967977;28;20079;-73
2022/03/27 06:36:34;;;;;;;16.35;2.78;;;22.80;32.80;;;;;;4953186;28;20075;-74
2022/03/27 06:39:03;;;;;;;12.77;2.40;;;22.80;33.10;;;;;;4954312;28;20146;-72
2022/03/27 06:41:29;;;;;;;24.17;3.08;;;22.80;33.40;;;;;;4968151;28;20105;-73
2022/03/27 06:43:55;;;;;;;15.75;2.35;;;22.80;34.10;;;;;;4965851;28;20169;-69
2022/03/27 06:46:22;;;;;;;8.90;2.35;;;22.80;34.00;;;;;;4954044;28;20074;-72
2022/03/27 06:48:52;;;;;;;12.93;2.17;;;23.10;33.90;;;;;;4953200;28;20150;-70
2022/03/27 06:51:19;;;;;;;8.65;2.15;;;23.30;33.50;;;;;;4939431;28;20071;-73
2022/03/27 06:53:47;;;;;;;12.20;2.33;;;23.50;32.90;;;;;;4952085;28;20077;-70
2022/03/27 06:56:13;;;;;;;14.27;2.38;;;23.70;32.60;;;;;;4935912;28;20090;-70
2022/03/27 06:58:40;;;;;;;23.60;3.72;;;23.70;32.20;;;;;;4954775;28;20505;-70
2022/03/27 07:03:51;;;;;;;13.38;3.33;;;23.70;32.70;;;;;;4952535;28;20097;-71
2022/03/27 07:06:18;;;;;;;14.10;3.40;;;23.70;32.80;;;;;;4946584;28;20070;-70
2022/03/27 07:08:44;;;;;;;15.02;3.42;;;23.60;33.10;;;;;;4953781;28;20074;-70
2022/03/27 07:11:10;;;;;;;18.02;4.75;;;23.50;33.50;;;;;;4938181;28;20090;-70
2022/03/27 07:13:37;;;;;;;14.13;3.53;;;23.40;33.80;;;;;;4950877;28;20089;-71
2022/03/27 07:16:04;;;;;;;11.40;3.90;;;23.20;34.60;;;;;;4952712;28;20103;-72
2022/03/27 07:18:30;;;;;;;19.85;4.78;;;23.30;34.70;;;;;;4965548;28;20157;-70
2022/03/27 07:20:57;;;;;;;16.20;4.53;;;23.20;35.00;;;;;;4961854;28;20085;-69
2022/03/27 07:23:24;;;;;;;17.65;4.72;;;23.10;35.70;;;;;;4947141;28;20540;-68
2022/03/27 07:25:55;;;;;;;20.30;4.70;;;23.10;35.80;;;;;;4972944;28;20082;-70
2022/03/27 07:28:21;;;;;;;9.85;3.97;;;23.10;36.10;;;;;;4945550;28;20076;-68
2022/03/27 07:30:49;;;;;;;10.23;3.38;;;23.10;35.60;;;;;;4950765;28;20078;-68
2022/03/27 07:33:17;;;;;;;18.70;3.05;;;23.00;35.40;;;;;;4949688;28;20447;-68
2022/03/27 07:35:44;;;;;;;22.83;4.60;;;22.80;35.20;;;;;;4952037;28;20075;-67
2022/03/27 07:38:10;;;;;;;29.80;4.35;;;22.80;35.90;;;;;;4943117;28;21453;-66
2022/03/27 07:40:38;;;;;;;30.08;4.72;;;22.60;35.20;;;;;;4935954;28;20090;-68
2022/03/27 07:43:04;;;;;;;33.75;5.07;;;22.50;35.40;;;;;;4944450;28;20111;-67
2022/03/27 07:45:32;;;;;;;29.17;4.78;;;22.40;34.70;;;;;;4958570;28;20130;-67
2022/03/27 07:48:03;;;;;;;16.38;4.05;;;22.50;34.70;;;;;;4965027;28;20496;-69
2022/03/27 07:50:30;;;;;;;29.60;4.38;;;22.50;34.00;;;;;;4950845;28;20133;-69
2022/03/27 07:52:58;;;;;;;26.85;3.78;;;22.40;34.20;;;;;;4963751;28;20086;-69
2022/03/27 07:55:24;;;;;;;12.02;3.13;;;22.20;34.10;;;;;;4950808;28;20552;-67
2022/03/27 07:57:50;;;;;;;14.30;3.38;;;22.10;34.70;;;;;;4951600;28;20075;-68
2022/03/27 08:00:17;;;;;;;21.92;3.70;;;22.00;34.70;;;;;;4961354;28;20425;-67
2022/03/27 08:02:45;;;;;;;17.77;3.33;;;21.90;34.70;;;;;;4952271;28;20087;-68
2022/03/27 08:05:12;;;;;;;14.82;3.97;;;21.90;34.80;;;;;;4964081;28;20570;-66
2022/03/27 08:07:39;;;;;;;16.42;3.22;;;21.80;35.10;;;;;;4952915;28;20076;-68
2022/03/27 08:10:07;;;;;;;16.25;3.50;;;21.80;35.00;;;;;;4946171;28;20129;-68
2022/03/27 08:12:35;;;;;;;11.05;3.13;;;21.50;34.30;;;;;;4968315;28;20531;-68
2022/03/27 08:15:01;;;;;;;18.88;3.88;;;21.60;34.10;;;;;;4936970;28;20451;-70
2022/03/27 08:17:28;;;;;;;17.92;3.55;;;21.50;33.60;;;;;;4951359;28;20566;-70
2022/03/27 08:19:54;;;;;;;18.45;3.22;;;21.30;33.00;;;;;;4960547;28;20127;-68
2022/03/27 08:22:24;;;;;;;11.57;2.45;;;21.40;33.00;;;;;;4962719;28;20093;-70
2022/03/27 08:24:51;;;;;;;19.80;3.42;;;21.40;32.90;;;;;;4947993;28;20642;-71
2022/03/27 08:27:17;;;;;;;17.40;3.20;;;21.50;33.20;;;;;;4967316;28;20088;-69
2022/03/27 08:29:44;;;;;;;15.10;3.20;;;21.50;32.90;;;;;;4948827;28;20076;-68
2022/03/27 08:32:13;;;;;;;12.52;3.40;;;21.40;33.10;;;;;;4964766;28;20110;-68
2022/03/27 08:34:44;;;;;;;13.00;3.45;;;21.40;33.30;;;;;;4946960;28;20074;-68
2022/03/27 08:37:13;;;;;;;20.60;3.28;;;21.40;33.50;;;;;;4940711;28;20598;-68
2022/03/27 08:39:41;;;;;;;13.98;3.13;;;21.40;32.60;;;;;;4951206;28;20528;-67
2022/03/27 08:42:08;;;;;;;17.92;3.22;;;21.40;32.50;;;;;;4951291;28;20096;-70
2022/03/27 08:44:37;;;;;;;18.67;2.97;;;21.40;32.70;;;;;;4946953;28;20071;-67
2022/03/27 08:47:17;;;;;;;17.90;2.92;;;21.30;32.00;;;;;;4951180;28;20079;-68
2022/03/27 08:49:54;;;;;;;14.07;3.40;;;21.30;32.30;;;;;;4948909;28;20559;-68
2022/03/27 08:52:21;;;;;;;20.10;4.47;;;21.20;32.50;;;;;;4970062;28;20439;-68
2022/03/27 08:54:59;;;;;;;23.38;3.95;;;21.20;32.50;;;;;;4967587;28;20081;-67
2022/03/27 08:57:50;;;;;;;18.23;3.10;;;21.10;33.10;;;;;;4964996;28;20142;-68
2022/03/27 09:00:19;;;;;;;20.13;4.07;;;21.00;32.90;;;;;;4965080;28;20167;-68
2022/03/27 09:02:45;;;;;;;18.17;4.45;;;21.10;32.40;;;;;;4948072;28;20095;-68
2022/03/27 09:05:12;;;;;;;17.83;3.95;;;21.10;32.50;;;;;;4950682;28;20080;-70
2022/03/27 09:07:38;;;;;;;11.73;3.63;;;21.00;32.30;;;;;;4949985;28;20075;-69
2022/03/27 09:10:08;;;;;;;18.55;3.03;;;21.10;32.40;;;;;;4948512;28;20091;-68
2022/03/27 09:12:35;;;;;;;20.42;3.05;;;21.10;32.60;;;;;;4952575;28;20841;-72
2022/03/27 09:15:04;;;;;;;16.90;3.17;;;21.00;32.30;;;;;;4949428;28;20079;-68
2022/03/27 09:17:31;;;;;;;13.68;3.05;;;21.00;32.00;;;;;;4962823;28;20151;-68
2022/03/27 09:19:57;;;;;;;11.18;2.50;;;21.00;31.20;;;;;;4966706;28;20087;-69
2022/03/27 09:22:29;;;;;;;13.88;2.80;;;21.00;31.40;;;;;;4934524;28;20095;-69
2022/03/27 09:25:01;;;;;;;21.13;3.05;;;21.00;32.30;;;;;;4943245;28;20086;-68
2022/03/27 09:27:33;;;;;;;21.35;2.80;;;21.00;32.40;;;;;;4956698;28;20535;-68
2022/03/27 09:30:08;;;;;;;18.65;3.38;;;21.00;32.60;;;;;;4952007;28;20075;-68
2022/03/27 09:32:37;;;;;;;13.57;2.92;;;20.90;32.30;;;;;;4968501;28;20422;-70
2022/03/27 09:35:08;;;;;;;18.48;3.15;;;20.90;31.40;;;;;;4964070;28;20622;-68
2022/03/27 09:37:41;;;;;;;17.52;3.10;;;20.90;31.90;;;;;;4951128;28;20076;-70
2022/03/27 09:40:09;;;;;;;15.73;3.15;;;20.90;32.20;;;;;;4962440;28;20540;-70
2022/03/27 09:42:40;;;;;;;13.70;3.25;;;20.90;32.50;;;;;;4935250;28;20500;-67
2022/03/27 09:45:17;;;;;;;13.55;3.03;;;20.90;33.10;;;;;;4946254;28;20106;-69
2022/03/27 09:47:48;;;;;;;18.65;3.80;;;20.70;33.50;;;;;;4945342;28;20075;-68
2022/03/27 09:50:30;;;;;;;24.00;4.55;;;20.60;33.50;;;;;;4939497;28;20420;-70
2022/03/27 09:53:35;;;;;;;24.05;4.10;;;20.60;33.40;;;;;;4953528;28;20090;-69
2022/03/27 09:56:02;;;;;;;24.90;4.85;;;20.60;34.50;;;;;;4897689;29;20107;-68
2022/03/27 09:58:45;;;;;;;24.65;4.47;;;20.50;34.20;;;;;;4913659;29;20611;-69
2022/03/27 10:01:17;;;;;;;25.05;5.18;;;20.40;34.20;;;;;;4896802;29;20096;-68
2022/03/27 10:04:03;;;;;;;25.00;5.05;;;20.30;34.30;;;;;;4899748;29;20138;-69
2022/03/27 10:06:37;;;;;;;29.50;4.47;;;20.30;34.90;;;;;;4898596;29;20180;-68
2022/03/27 10:09:08;;;;;;;31.02;4.93;;;20.20;34.50;;;;;;4899406;29;20552;-67
2022/03/27 10:11:36;;;;;;;30.10;4.85;;;20.10;34.60;;;;;;4897088;29;20099;-70
2022/03/27 10:14:04;;;;;;;30.10;4.20;;;20.10;34.30;;;;;;4912634;29;20096;-69
2022/03/27 10:16:36;;;;;;;27.77;4.70;;;20.00;34.30;;;;;;4897892;29;20095;-68
2022/03/27 10:19:13;;;;;;;26.58;4.60;;;20.00;33.90;;;;;;4912964;29;20175;-68
2022/03/27 10:21:43;;;;;;;26.83;4.97;;;19.90;33.90;;;;;;4882543;29;20123;-68
2022/03/27 10:24:16;;;;;;;36.22;5.97;;;20.00;33.90;;;;;;4913755;29;20116;-69
2022/03/27 10:26:44;;;;;;;31.17;5.45;;;19.90;33.70;;;;;;4910376;29;20091;-68
2022/03/27 10:29:12;;;;;;;23.08;5.32;;;19.90;34.30;;;;;;4905926;28;20122;-68
2022/03/27 10:31:39;;;;;;;21.13;5.18;;;19.90;34.50;;;;;;4955603;28;20087;-69
2022/03/27 10:34:07;;;;;;;36.05;5.72;;;19.90;34.30;;;;;;4952300;28;20095;-68
2022/03/27 10:36:56;;;;;;;29.27;5.80;;;19.90;34.70;;;;;;4938284;28;20565;-68
2022/03/27 10:39:45;;;;;;;32.88;4.82;;;19.80;34.80;;;;;;4967371;28;20536;-71
2022/03/27 10:42:30;;;;;;;29.92;5.32;;;19.70;34.40;;;;;;4939599;28;20106;-68
2022/03/27 10:45:17;;;;;;;28.83;5.18;;;19.70;35.40;;;;;;4965818;28;20078;-68
2022/03/27 10:47:44;;;;;;;51.90;7.37;;;19.70;35.10;;;;;;4965652;28;20163;-68
2022/03/27 10:50:10;;;;;;;45.30;7.38;;;19.60;35.60;;;;;;4947171;28;20099;-70
2022/03/27 10:52:43;;;;;;;45.67;7.38;;;19.60;36.30;;;;;;4954252;28;20098;-69
2022/03/27 10:55:15;;;;;;;38.42;6.68;;;19.60;37.30;;;;;;4958959;28;20522;-67
2022/03/27 10:57:53;;;;;;;55.40;7.00;;;19.60;37.40;;;;;;4950961;28;20470;-70
2022/03/27 11:00:40;;;;;;;48.00;8.13;;;19.50;37.00;;;;;;4949625;28;20495;-69
2022/03/27 11:03:06;;;;;;;42.50;9.10;;;19.40;37.90;;;;;;4938223;28;20091;-70
2022/03/27 11:05:36;;;;;;;48.28;8.40;;;19.40;38.40;;;;;;4937958;28;20107;-69
2022/03/27 11:08:18;;;;;;;60.28;10.60;;;19.40;38.50;;;;;;4952875;28;20166;-68
2022/03/27 11:10:49;;;;;;;48.88;10.18;;;19.40;39.10;;;;;;4968795;28;20659;-68
2022/03/27 11:13:33;;;;;;;38.58;11.20;;;19.40;38.50;;;;;;4964029;28;20067;-69
2022/03/27 11:16:09;;;;;;;40.38;10.70;;;19.50;38.10;;;;;;4964474;28;20107;-69
2022/03/27 11:18:41;;;;;;;57.67;10.82;;;19.50;38.50;;;;;;4966051;28;20579;-68
2022/03/27 11:21:13;;;;;;;55.35;11.07;;;19.40;38.60;;;;;;4946435;28;20102;-68
2022/03/27 11:23:41;;;;;;;56.42;11.93;;;19.40;38.40;;;;;;4964162;28;20072;-69
2022/03/27 11:26:20;;;;;;;55.75;11.07;;;19.40;38.50;;;;;;4950350;28;20429;-69
2022/03/27 11:28:51;;;;;;;53.20;11.57;;;19.40;38.30;;;;;;4952377;28;20259;-69
2022/03/27 11:31:39;;;;;;;51.17;11.63;;;19.40;38.20;;;;;;4968951;28;20102;-69
2022/03/27 11:34:12;;;;;;;53.35;12.52;;;19.40;38.00;;;;;;4895281;29;20093;-68
2022/03/27 11:36:48;;;;;;;63.05;11.65;;;19.40;37.80;;;;;;4878416;29;20589;-68
2022/03/27 11:39:36;;;;;;;60.35;12.00;;;19.40;38.10;;;;;;4861994;29;20128;-70
2022/03/27 11:42:25;;;;;;;64.53;12.20;;;19.30;38.30;;;;;;4878097;29;20100;-70
2022/03/27 11:45:21;;;;;;;58.92;12.13;;;19.30;38.60;;;;;;4879825;29;20469;-69
2022/03/27 11:47:54;;;;;;;80.38;14.57;;;19.30;38.50;;;;;;4879632;29;20081;-69
2022/03/27 11:50:32;;;;;;;59.17;15.60;;;19.30;38.10;;;;;;4879411;29;20168;-71
2022/03/27 11:52:59;;;;;;;77.00;18.05;;;19.20;37.60;;;;;;4878595;29;20597;-69
2022/03/27 11:55:31;;;;;;;62.95;19.90;;;19.20;37.20;;;;;;4879121;29;20176;-71
2022/03/27 11:58:00;;;;;;;67.25;16.50;;;19.20;36.60;;;;;;4879167;29;20116;-70
2022/03/27 12:00:38;;;;;;;65.10;15.27;;;19.20;35.50;;;;;;4879030;29;20093;-68
2022/03/27 12:03:13;;;;;;;51.20;14.70;;;19.20;34.80;;;;;;4861443;29;20148;-68
2022/03/27 12:05:40;;;;;;;51.63;14.90;;;19.20;34.20;;;;;;4877974;29;20080;-69
2022/03/27 12:08:07;;;;;;;47.45;15.32;;;19.20;33.50;;;;;;4878908;29;20564;-69
2022/03/27 12:10:44;;;;;;;64.13;16.73;;;19.10;33.50;;;;;;4879348;28;20392;-68
2022/03/27 12:13:11;;;;;;;53.17;15.73;;;19.10;33.80;;;;;;4962054;28;20130;-72
2022/03/27 12:15:49;;;;;;;48.13;16.92;;;19.00;34.20;;;;;;4966682;28;20483;-69
2022/03/27 12:18:39;;;;;;;67.72;19.73;;;19.10;34.90;;;;;;4950028;28;20115;-70
2022/03/27 12:21:09;;;;;;;53.65;18.48;;;19.10;34.80;;;;;;4945646;28;20087;-67
2022/03/27 12:23:46;;;;;;;59.15;17.10;;;19.10;35.00;;;;;;4967470;28;20087;-68
2022/03/27 12:31:56;;;;;;;56.58;16.63;;;19.10;35.10;;;;;;4965591;28;20118;-68
2022/03/27 12:34:24;;;;;;;56.38;15.85;;;19.00;35.40;;;;;;4965914;28;20150;-68
2022/03/27 12:37:14;;;;;;;53.05;15.32;;;19.00;35.50;;;;;;4966930;28;20126;-68
2022/03/27 12:39:49;;;;;;;52.35;16.27;;;18.90;35.40;;;;;;4939832;28;20480;-67
2022/03/27 12:42:35;;;;;;;50.05;16.13;;;18.90;35.60;;;;;;4965552;28;20090;-67
2022/03/27 12:45:05;;;;;;;49.30;16.35;;;18.90;35.80;;;;;;5002065;23;20172;-69
2022/03/27 12:47:37;;;;;;;53.88;16.27;;;18.90;35.60;;;;;;4998528;28;20087;-71
2022/03/27 12:50:06;;;;;;;47.22;17.38;;;18.90;35.40;;;;;;5001669;28;20173;-70
2022/03/27 12:52:32;;;;;;;45.25;18.02;;;18.90;35.20;;;;;;5001194;28;20121;-69
2022/03/27 12:55:03;;;;;;;41.67;17.40;;;18.90;34.90;;;;;;5001857;28;20066;-67
2022/03/27 12:57:58;;;;;;;46.30;17.17;;;18.90;34.80;;;;;;4964541;28;20169;-68